sensor_id;sensor_type;location;lat;lon;timestamp;P1;durP1;ratioP1;P2;durP2;ratioP2
26750;SDS011;14345;48.272;25.926;2022-11-04T00:01:40;20.33;;;11.45;;
26750;SDS011;14345;48.272;25.926;2022-11-04T00:04:06;23.10;;;12.05;;
26750;SDS011;14345;48.272;25.926;2022-11-04T00:06:32;20.27;;;12.23;;
26750;SDS011;14345;48.272;25.926;2022-11-04T00:08:58;19.85;;;11.70;;
26750;SDS011;14345;48.272;25.926;2022-11-04T00:11:25;22.05;;;11.95;;
26750;SDS011;14345;48.272;25.926;2022-11-04T00:14:10;25.48;;;13.52;;
26750;SDS011;14345;48.272;25.926;2022-11-04T00:16:37;26.55;;;14.05;;
26750;SDS011;14345;48.272;25.926;2022-11-04T00:19:21;22.50;;;12.48;;
26750;SDS011;14345;48.272;25.926;2022-11-04T00:21:48;22.40;;;12.95;;
26750;SDS011;14345;48.272;25.926;2022-11-04T00:24:33;22.33;;;12.00;;
26750;SDS011;14345;48.272;25.926;2022-11-04T00:27:18;22.67;;;12.73;;
26750;SDS011;14345;48.272;25.926;2022-11-04T00:30:04;21.73;;;12.52;;
26750;SDS011;14345;48.272;25.926;2022-11-04T00:32:32;27.65;;;12.77;;
26750;SDS011;14345;48.272;25.926;2022-11-04T00:35:17;24.85;;;13.60;;
26750;SDS011;14345;48.272;25.926;2022-11-04T00:37:43;33.60;;;15.98;;
26750;SDS011;14345;48.272;25.926;2022-11-04T00:40:12;29.20;;;15.43;;
26750;SDS011;14345;48.272;25.926;2022-11-04T00:42:38;34.50;;;16.58;;
26750;SDS011;14345;48.272;25.926;2022-11-04T00:45:05;29.95;;;16.95;;
26750;SDS011;14345;48.272;25.926;2022-11-04T00:47:31;33.28;;;17.67;;
26750;SDS011;14345;48.272;25.926;2022-11-04T00:49:57;28.95;;;15.77;;
26750;SDS011;14345;48.272;25.926;2022-11-04T00:52:23;31.63;;;16.33;;
26750;SDS011;14345;48.272;25.926;2022-11-04T00:54:49;29.42;;;16.48;;
26750;SDS011;14345;48.272;25.926;2022-11-04T00:57:15;31.45;;;15.18;;
26750;SDS011;14345;48.272;25.926;2022-11-04T00:59:41;25.70;;;14.98;;
26750;SDS011;14345;48.272;25.926;2022-11-04T01:02:09;29.05;;;16.10;;
26750;SDS011;14345;48.272;25.926;2022-11-04T01:04:35;31.35;;;16.08;;
26750;SDS011;14345;48.272;25.926;2022-11-04T01:07:01;29.40;;;15.93;;
26750;SDS011;14345;48.272;25.926;2022-11-04T01:09:27;32.90;;;16.02;;
26750;SDS011;14345;48.272;25.926;2022-11-04T01:11:53;35.22;;;18.45;;
26750;SDS011;14345;48.272;25.926;2022-11-04T01:14:20;31.20;;;15.95;;
26750;SDS011;14345;48.272;25.926;2022-11-04T01:16:48;27.25;;;13.90;;
26750;SDS011;14345;48.272;25.926;2022-11-04T01:19:14;31.08;;;16.00;;
26750;SDS011;14345;48.272;25.926;2022-11-04T01:21:40;33.03;;;17.70;;
26750;SDS011;14345;48.272;25.926;2022-11-04T01:24:06;37.80;;;19.00;;
26750;SDS011;14345;48.272;25.926;2022-11-04T01:26:32;37.08;;;19.27;;
26750;SDS011;14345;48.272;25.926;2022-11-04T01:28:58;35.28;;;17.23;;
26750;SDS011;14345;48.272;25.926;2022-11-04T01:31:28;41.20;;;19.98;;
26750;SDS011;14345;48.272;25.926;2022-11-04T01:33:54;31.55;;;17.83;;
26750;SDS011;14345;48.272;25.926;2022-11-04T01:36:21;33.35;;;17.25;;
26750;SDS011;14345;48.272;25.926;2022-11-04T01:38:47;31.67;;;18.23;;
26750;SDS011;14345;48.272;25.926;2022-11-04T01:41:16;40.30;;;19.85;;
26750;SDS011;14345;48.272;25.926;2022-11-04T01:46:08;30.20;;;16.77;;
26750;SDS011;14345;48.272;25.926;2022-11-04T01:48:36;28.65;;;16.15;;
26750;SDS011;14345;48.272;25.926;2022-11-04T01:51:02;29.90;;;15.52;;
26750;SDS011;14345;48.272;25.926;2022-11-04T01:53:31;27.15;;;15.40;;
26750;SDS011;14345;48.272;25.926;2022-11-04T01:55:58;30.38;;;16.80;;
26750;SDS011;14345;48.272;25.926;2022-11-04T01:58:25;29.48;;;16.10;;
26750;SDS011;14345;48.272;25.926;2022-11-04T02:00:53;29.30;;;16.48;;
26750;SDS011;14345;48.272;25.926;2022-11-04T02:05:46;35.25;;;18.08;;
26750;SDS011;14345;48.272;25.926;2022-11-04T02:08:12;31.00;;;16.75;;
26750;SDS011;14345;48.272;25.926;2022-11-04T02:10:40;27.98;;;16.50;;
26750;SDS011;14345;48.272;25.926;2022-11-04T02:13:10;26.92;;;14.95;;
26750;SDS011;14345;48.272;25.926;2022-11-04T02:15:38;27.52;;;16.00;;
26750;SDS011;14345;48.272;25.926;2022-11-04T02:33:40;30.77;;;16.65;;
26750;SDS011;14345;48.272;25.926;2022-11-04T02:41:25;28.52;;;16.17;;
26750;SDS011;14345;48.272;25.926;2022-11-04T02:46:32;29.48;;;15.93;;
26750;SDS011;14345;48.272;25.926;2022-11-04T02:49:13;25.17;;;15.00;;
26750;SDS011;14345;48.272;25.926;2022-11-04T02:52:25;31.52;;;15.18;;
26750;SDS011;14345;48.272;25.926;2022-11-04T02:54:32;30.40;;;15.95;;
26750;SDS011;14345;48.272;25.926;2022-11-04T02:57:00;31.00;;;15.93;;
26750;SDS011;14345;48.272;25.926;2022-11-04T02:59:35;26.38;;;15.30;;
26750;SDS011;14345;48.272;25.926;2022-11-04T03:02:02;26.08;;;14.57;;
26750;SDS011;14345;48.272;25.926;2022-11-04T03:04:30;31.05;;;15.52;;
26750;SDS011;14345;48.272;25.926;2022-11-04T03:06:58;26.42;;;15.93;;
26750;SDS011;14345;48.272;25.926;2022-11-04T03:09:27;27.50;;;16.25;;
26750;SDS011;14345;48.272;25.926;2022-11-04T03:11:55;28.67;;;15.32;;
26750;SDS011;14345;48.272;25.926;2022-11-04T03:14:44;28.17;;;15.15;;
26750;SDS011;14345;48.272;25.926;2022-11-04T03:17:12;29.20;;;14.85;;
26750;SDS011;14345;48.272;25.926;2022-11-04T03:19:56;31.05;;;15.65;;
26750;SDS011;14345;48.272;25.926;2022-11-04T03:22:29;24.55;;;13.20;;
26750;SDS011;14345;48.272;25.926;2022-11-04T03:24:57;26.13;;;14.88;;
26750;SDS011;14345;48.272;25.926;2022-11-04T03:30:14;29.70;;;15.93;;
26750;SDS011;14345;48.272;25.926;2022-11-04T03:32:58;29.10;;;14.70;;
26750;SDS011;14345;48.272;25.926;2022-11-04T03:35:27;39.15;;;20.63;;
26750;SDS011;14345;48.272;25.926;2022-11-04T03:37:53;51.88;;;25.30;;
26750;SDS011;14345;48.272;25.926;2022-11-04T03:40:19;49.85;;;25.92;;
26750;SDS011;14345;48.272;25.926;2022-11-04T03:42:47;49.33;;;26.70;;
26750;SDS011;14345;48.272;25.926;2022-11-04T03:45:15;57.20;;;28.92;;
26750;SDS011;14345;48.272;25.926;2022-11-04T03:47:41;54.88;;;28.67;;
26750;SDS011;14345;48.272;25.926;2022-11-04T03:50:22;53.30;;;28.50;;
26750;SDS011;14345;48.272;25.926;2022-11-04T03:52:50;57.33;;;30.23;;
26750;SDS011;14345;48.272;25.926;2022-11-04T03:55:16;63.55;;;32.90;;
26750;SDS011;14345;48.272;25.926;2022-11-04T03:58:02;73.43;;;36.10;;
26750;SDS011;14345;48.272;25.926;2022-11-04T04:00:33;66.97;;;33.75;;
26750;SDS011;14345;48.272;25.926;2022-11-04T04:03:01;81.90;;;38.00;;
26750;SDS011;14345;48.272;25.926;2022-11-04T04:05:37;77.30;;;38.65;;
26750;SDS011;14345;48.272;25.926;2022-11-04T04:11:01;89.45;;;40.28;;
26750;SDS011;14345;48.272;25.926;2022-11-04T04:13:33;76.00;;;38.83;;
26750;SDS011;14345;48.272;25.926;2022-11-04T04:16:07;87.03;;;42.03;;
26750;SDS011;14345;48.272;25.926;2022-11-04T04:18:37;95.45;;;42.47;;
26750;SDS011;14345;48.272;25.926;2022-11-04T04:21:05;88.60;;;42.83;;
26750;SDS011;14345;48.272;25.926;2022-11-04T04:23:33;88.60;;;42.03;;
26750;SDS011;14345;48.272;25.926;2022-11-04T04:26:18;84.25;;;39.83;;
26750;SDS011;14345;48.272;25.926;2022-11-04T04:29:05;83.93;;;37.60;;
26750;SDS011;14345;48.272;25.926;2022-11-04T04:31:32;75.00;;;37.58;;
26750;SDS011;14345;48.272;25.926;2022-11-04T04:34:17;79.68;;;37.30;;
26750;SDS011;14345;48.272;25.926;2022-11-04T04:36:51;73.72;;;33.63;;
26750;SDS011;14345;48.272;25.926;2022-11-04T04:39:19;65.97;;;33.40;;
26750;SDS011;14345;48.272;25.926;2022-11-04T04:42:05;66.43;;;33.28;;
26750;SDS011;14345;48.272;25.926;2022-11-04T04:44:50;69.28;;;35.47;;
26750;SDS011;14345;48.272;25.926;2022-11-04T04:47:46;70.78;;;34.35;;
26750;SDS011;14345;48.272;25.926;2022-11-04T04:50:13;67.28;;;33.72;;
26750;SDS011;14345;48.272;25.926;2022-11-04T04:52:40;61.90;;;32.15;;
26750;SDS011;14345;48.272;25.926;2022-11-04T04:55:07;65.55;;;32.00;;
26750;SDS011;14345;48.272;25.926;2022-11-04T04:57:33;65.85;;;32.65;;
26750;SDS011;14345;48.272;25.926;2022-11-04T04:59:59;61.95;;;31.52;;
26750;SDS011;14345;48.272;25.926;2022-11-04T05:02:25;66.47;;;31.90;;
26750;SDS011;14345;48.272;25.926;2022-11-04T05:04:51;60.65;;;31.35;;
26750;SDS011;14345;48.272;25.926;2022-11-04T05:07:17;55.17;;;29.13;;
26750;SDS011;14345;48.272;25.926;2022-11-04T05:09:43;57.40;;;27.02;;
26750;SDS011;14345;48.272;25.926;2022-11-04T05:12:09;55.10;;;28.02;;
26750;SDS011;14345;48.272;25.926;2022-11-04T05:14:35;55.28;;;28.25;;
26750;SDS011;14345;48.272;25.926;2022-11-04T05:17:02;54.05;;;27.60;;
26750;SDS011;14345;48.272;25.926;2022-11-04T05:19:28;48.75;;;27.90;;
26750;SDS011;14345;48.272;25.926;2022-11-04T05:21:54;55.42;;;29.20;;
26750;SDS011;14345;48.272;25.926;2022-11-04T05:24:20;55.08;;;29.80;;
26750;SDS011;14345;48.272;25.926;2022-11-04T05:26:46;54.58;;;28.60;;
26750;SDS011;14345;48.272;25.926;2022-11-04T05:29:12;61.90;;;29.58;;
26750;SDS011;14345;48.272;25.926;2022-11-04T05:31:38;63.05;;;30.00;;
26750;SDS011;14345;48.272;25.926;2022-11-04T05:34:04;63.78;;;33.00;;
26750;SDS011;14345;48.272;25.926;2022-11-04T05:36:30;71.10;;;35.35;;
26750;SDS011;14345;48.272;25.926;2022-11-04T05:38:57;71.10;;;37.13;;
26750;SDS011;14345;48.272;25.926;2022-11-04T05:41:23;70.30;;;35.25;;
26750;SDS011;14345;48.272;25.926;2022-11-04T05:43:56;67.90;;;33.80;;
26750;SDS011;14345;48.272;25.926;2022-11-04T05:46:23;64.75;;;34.60;;
26750;SDS011;14345;48.272;25.926;2022-11-04T05:48:49;64.85;;;33.53;;
26750;SDS011;14345;48.272;25.926;2022-11-04T05:51:16;66.65;;;34.58;;
26750;SDS011;14345;48.272;25.926;2022-11-04T05:53:42;69.47;;;36.33;;
26750;SDS011;14345;48.272;25.926;2022-11-04T05:56:08;77.53;;;36.55;;
26750;SDS011;14345;48.272;25.926;2022-11-04T05:58:35;70.20;;;36.13;;
26750;SDS011;14345;48.272;25.926;2022-11-04T06:03:45;71.70;;;34.40;;
26750;SDS011;14345;48.272;25.926;2022-11-04T06:06:11;70.70;;;37.42;;
26750;SDS011;14345;48.272;25.926;2022-11-04T06:08:37;71.32;;;37.15;;
26750;SDS011;14345;48.272;25.926;2022-11-04T06:11:03;91.93;;;47.33;;
26750;SDS011;14345;48.272;25.926;2022-11-04T06:13:30;102.88;;;53.78;;
26750;SDS011;14345;48.272;25.926;2022-11-04T06:15:56;97.03;;;55.08;;
26750;SDS011;14345;48.272;25.926;2022-11-04T06:18:22;79.13;;;48.85;;
26750;SDS011;14345;48.272;25.926;2022-11-04T06:20:48;87.20;;;49.30;;
26750;SDS011;14345;48.272;25.926;2022-11-04T06:23:14;85.10;;;47.83;;
26750;SDS011;14345;48.272;25.926;2022-11-04T06:25:40;73.82;;;42.60;;
26750;SDS011;14345;48.272;25.926;2022-11-04T06:28:06;72.00;;;38.78;;
26750;SDS011;14345;48.272;25.926;2022-11-04T06:30:32;72.55;;;37.58;;
26750;SDS011;14345;48.272;25.926;2022-11-04T06:32:58;70.97;;;37.83;;
26750;SDS011;14345;48.272;25.926;2022-11-04T06:35:24;73.82;;;37.05;;
26750;SDS011;14345;48.272;25.926;2022-11-04T06:37:50;67.05;;;34.97;;
26750;SDS011;14345;48.272;25.926;2022-11-04T06:40:16;69.13;;;33.42;;
26750;SDS011;14345;48.272;25.926;2022-11-04T06:42:42;66.63;;;34.85;;
26750;SDS011;14345;48.272;25.926;2022-11-04T06:45:09;67.53;;;34.88;;
26750;SDS011;14345;48.272;25.926;2022-11-04T06:47:35;72.45;;;36.08;;
26750;SDS011;14345;48.272;25.926;2022-11-04T06:50:02;69.18;;;34.13;;
26750;SDS011;14345;48.272;25.926;2022-11-04T06:52:28;62.33;;;34.38;;
26750;SDS011;14345;48.272;25.926;2022-11-04T06:54:54;68.88;;;36.20;;
26750;SDS011;14345;48.272;25.926;2022-11-04T06:57:20;62.60;;;32.83;;
26750;SDS011;14345;48.272;25.926;2022-11-04T06:59:46;71.45;;;36.22;;
26750;SDS011;14345;48.272;25.926;2022-11-04T07:02:12;61.67;;;33.85;;
26750;SDS011;14345;48.272;25.926;2022-11-04T07:04:38;56.80;;;31.77;;
26750;SDS011;14345;48.272;25.926;2022-11-04T07:07:04;62.67;;;32.17;;
26750;SDS011;14345;48.272;25.926;2022-11-04T07:09:30;58.53;;;32.08;;
26750;SDS011;14345;48.272;25.926;2022-11-04T07:11:56;61.35;;;31.08;;
26750;SDS011;14345;48.272;25.926;2022-11-04T07:14:22;59.85;;;33.58;;
26750;SDS011;14345;48.272;25.926;2022-11-04T07:16:49;56.50;;;31.60;;
26750;SDS011;14345;48.272;25.926;2022-11-04T07:19:15;63.47;;;34.20;;
26750;SDS011;14345;48.272;25.926;2022-11-04T07:21:41;64.88;;;34.47;;
26750;SDS011;14345;48.272;25.926;2022-11-04T07:24:07;71.88;;;36.45;;
26750;SDS011;14345;48.272;25.926;2022-11-04T07:26:33;66.53;;;34.78;;
26750;SDS011;14345;48.272;25.926;2022-11-04T07:28:59;65.72;;;33.75;;
26750;SDS011;14345;48.272;25.926;2022-11-04T07:31:26;65.70;;;36.97;;
26750;SDS011;14345;48.272;25.926;2022-11-04T07:33:52;65.65;;;37.33;;
26750;SDS011;14345;48.272;25.926;2022-11-04T07:36:18;64.65;;;35.25;;
26750;SDS011;14345;48.272;25.926;2022-11-04T07:38:45;60.42;;;32.58;;
26750;SDS011;14345;48.272;25.926;2022-11-04T07:41:11;66.10;;;35.85;;
26750;SDS011;14345;48.272;25.926;2022-11-04T07:43:38;64.28;;;35.72;;
26750;SDS011;14345;48.272;25.926;2022-11-04T07:46:08;66.13;;;34.42;;
26750;SDS011;14345;48.272;25.926;2022-11-04T07:48:35;55.05;;;31.95;;
26750;SDS011;14345;48.272;25.926;2022-11-04T07:51:01;63.35;;;33.63;;
26750;SDS011;14345;48.272;25.926;2022-11-04T07:53:27;62.28;;;32.85;;
26750;SDS011;14345;48.272;25.926;2022-11-04T07:55:54;52.20;;;30.80;;
26750;SDS011;14345;48.272;25.926;2022-11-04T07:58:20;50.72;;;28.88;;
26750;SDS011;14345;48.272;25.926;2022-11-04T08:00:46;55.10;;;30.13;;
26750;SDS011;14345;48.272;25.926;2022-11-04T08:03:13;58.75;;;32.28;;
26750;SDS011;14345;48.272;25.926;2022-11-04T08:05:39;60.85;;;34.25;;
26750;SDS011;14345;48.272;25.926;2022-11-04T08:08:05;57.85;;;31.50;;
26750;SDS011;14345;48.272;25.926;2022-11-04T08:10:31;52.97;;;31.23;;
26750;SDS011;14345;48.272;25.926;2022-11-04T08:12:58;57.25;;;31.38;;
26750;SDS011;14345;48.272;25.926;2022-11-04T08:15:24;61.58;;;31.50;;
26750;SDS011;14345;48.272;25.926;2022-11-04T08:17:50;61.15;;;31.30;;
26750;SDS011;14345;48.272;25.926;2022-11-04T08:20:16;58.92;;;30.95;;
26750;SDS011;14345;48.272;25.926;2022-11-04T08:22:42;58.22;;;30.88;;
26750;SDS011;14345;48.272;25.926;2022-11-04T08:25:08;54.60;;;28.63;;
26750;SDS011;14345;48.272;25.926;2022-11-04T08:27:37;61.50;;;31.35;;
26750;SDS011;14345;48.272;25.926;2022-11-04T08:30:03;53.20;;;29.60;;
26750;SDS011;14345;48.272;25.926;2022-11-04T08:32:29;48.03;;;27.98;;
26750;SDS011;14345;48.272;25.926;2022-11-04T08:34:55;44.80;;;28.55;;
26750;SDS011;14345;48.272;25.926;2022-11-04T08:37:21;50.78;;;27.90;;
26750;SDS011;14345;48.272;25.926;2022-11-04T08:39:47;46.60;;;27.45;;
26750;SDS011;14345;48.272;25.926;2022-11-04T08:42:13;48.33;;;28.58;;
26750;SDS011;14345;48.272;25.926;2022-11-04T08:44:39;49.90;;;27.52;;
26750;SDS011;14345;48.272;25.926;2022-11-04T08:47:06;51.80;;;28.02;;
26750;SDS011;14345;48.272;25.926;2022-11-04T08:49:37;55.58;;;29.83;;
26750;SDS011;14345;48.272;25.926;2022-11-04T08:52:03;53.78;;;29.35;;
26750;SDS011;14345;48.272;25.926;2022-11-04T08:54:29;47.00;;;27.60;;
26750;SDS011;14345;48.272;25.926;2022-11-04T08:56:55;42.75;;;24.92;;
26750;SDS011;14345;48.272;25.926;2022-11-04T08:59:21;51.05;;;26.45;;
26750;SDS011;14345;48.272;25.926;2022-11-04T09:01:49;47.33;;;25.33;;
26750;SDS011;14345;48.272;25.926;2022-11-04T09:04:15;47.55;;;27.88;;
26750;SDS011;14345;48.272;25.926;2022-11-04T09:06:41;49.65;;;27.13;;
26750;SDS011;14345;48.272;25.926;2022-11-04T09:09:09;47.78;;;26.73;;
26750;SDS011;14345;48.272;25.926;2022-11-04T09:11:37;48.63;;;28.10;;
26750;SDS011;14345;48.272;25.926;2022-11-04T09:14:03;48.08;;;27.23;;
26750;SDS011;14345;48.272;25.926;2022-11-04T09:16:30;53.70;;;29.17;;
26750;SDS011;14345;48.272;25.926;2022-11-04T09:18:56;45.45;;;25.08;;
26750;SDS011;14345;48.272;25.926;2022-11-04T09:21:23;45.72;;;26.17;;
26750;SDS011;14345;48.272;25.926;2022-11-04T09:23:49;42.58;;;25.25;;
26750;SDS011;14345;48.272;25.926;2022-11-04T09:26:15;40.95;;;23.02;;
26750;SDS011;14345;48.272;25.926;2022-11-04T09:28:42;47.10;;;26.13;;
26750;SDS011;14345;48.272;25.926;2022-11-04T09:31:09;44.17;;;25.58;;
26750;SDS011;14345;48.272;25.926;2022-11-04T09:33:35;48.90;;;26.60;;
26750;SDS011;14345;48.272;25.926;2022-11-04T09:36:02;54.78;;;28.45;;
26750;SDS011;14345;48.272;25.926;2022-11-04T09:38:28;50.88;;;27.38;;
26750;SDS011;14345;48.272;25.926;2022-11-04T09:40:54;52.85;;;26.55;;
26750;SDS011;14345;48.272;25.926;2022-11-04T09:45:52;48.92;;;25.35;;
26750;SDS011;14345;48.272;25.926;2022-11-04T09:48:23;38.65;;;22.73;;
26750;SDS011;14345;48.272;25.926;2022-11-04T09:50:53;42.08;;;21.58;;
26750;SDS011;14345;48.272;25.926;2022-11-04T09:53:22;34.53;;;19.67;;
26750;SDS011;14345;48.272;25.926;2022-11-04T09:56:01;33.53;;;18.83;;
26750;SDS011;14345;48.272;25.926;2022-11-04T09:58:32;29.95;;;16.20;;
26750;SDS011;14345;48.272;25.926;2022-11-04T10:06:10;31.98;;;17.58;;
26750;SDS011;14345;48.272;25.926;2022-11-04T10:26:46;35.67;;;20.35;;
26750;SDS011;14345;48.272;25.926;2022-11-04T10:29:57;34.25;;;18.70;;
26750;SDS011;14345;48.272;25.926;2022-11-04T10:32:11;37.17;;;19.08;;
26750;SDS011;14345;48.272;25.926;2022-11-04T10:34:40;38.42;;;19.23;;
26750;SDS011;14345;48.272;25.926;2022-11-04T10:37:09;47.25;;;22.15;;
26750;SDS011;14345;48.272;25.926;2022-11-04T10:39:38;34.38;;;19.27;;
26750;SDS011;14345;48.272;25.926;2022-11-04T10:42:08;28.25;;;16.52;;
26750;SDS011;14345;48.272;25.926;2022-11-04T10:44:35;39.17;;;19.80;;
26750;SDS011;14345;48.272;25.926;2022-11-04T10:52:12;34.70;;;19.30;;
26750;SDS011;14345;48.272;25.926;2022-11-04T10:54:43;37.10;;;19.27;;
26750;SDS011;14345;48.272;25.926;2022-11-04T10:57:10;30.02;;;18.08;;
26750;SDS011;14345;48.272;25.926;2022-11-04T11:02:05;34.20;;;19.42;;
26750;SDS011;14345;48.272;25.926;2022-11-04T11:04:32;33.60;;;19.27;;
26750;SDS011;14345;48.272;25.926;2022-11-04T11:07:00;31.65;;;19.58;;
26750;SDS011;14345;48.272;25.926;2022-11-04T12:08:58;32.97;;;17.65;;
26750;SDS011;14345;48.272;25.926;2022-11-04T12:13:56;27.92;;;16.45;;
26750;SDS011;14345;48.272;25.926;2022-11-04T12:35:39;32.97;;;18.00;;
26750;SDS011;14345;48.272;25.926;2022-11-04T12:48:08;27.23;;;15.93;;
26750;SDS011;14345;48.272;25.926;2022-11-04T12:50:48;33.25;;;17.58;;
26750;SDS011;14345;48.272;25.926;2022-11-04T12:56:18;30.98;;;17.33;;
26750;SDS011;14345;48.272;25.926;2022-11-04T13:03:57;36.38;;;18.08;;
26750;SDS011;14345;48.272;25.926;2022-11-04T13:06:27;36.80;;;20.02;;
26750;SDS011;14345;48.272;25.926;2022-11-04T13:09:04;39.25;;;19.77;;
26750;SDS011;14345;48.272;25.926;2022-11-04T13:11:40;37.42;;;18.05;;
26750;SDS011;14345;48.272;25.926;2022-11-04T13:14:23;39.42;;;20.63;;
26750;SDS011;14345;48.272;25.926;2022-11-04T13:16:53;34.50;;;19.47;;
26750;SDS011;14345;48.272;25.926;2022-11-04T13:19:28;36.38;;;20.48;;
26750;SDS011;14345;48.272;25.926;2022-11-04T13:21:56;32.90;;;19.15;;
26750;SDS011;14345;48.272;25.926;2022-11-04T13:24:30;40.10;;;21.50;;
26750;SDS011;14345;48.272;25.926;2022-11-04T13:26:57;37.50;;;19.20;;
26750;SDS011;14345;48.272;25.926;2022-11-04T13:29:25;38.08;;;18.90;;
26750;SDS011;14345;48.272;25.926;2022-11-04T13:31:54;35.65;;;18.65;;
26750;SDS011;14345;48.272;25.926;2022-11-04T13:34:31;38.50;;;19.58;;
26750;SDS011;14345;48.272;25.926;2022-11-04T13:37:04;40.85;;;21.20;;
26750;SDS011;14345;48.272;25.926;2022-11-04T13:39:43;36.20;;;20.92;;
26750;SDS011;14345;48.272;25.926;2022-11-04T13:42:16;38.97;;;20.10;;
26750;SDS011;14345;48.272;25.926;2022-11-04T13:44:45;42.72;;;21.20;;
26750;SDS011;14345;48.272;25.926;2022-11-04T13:47:17;36.47;;;18.88;;
26750;SDS011;14345;48.272;25.926;2022-11-04T13:49:47;36.15;;;19.13;;
26750;SDS011;14345;48.272;25.926;2022-11-04T13:52:13;36.60;;;19.25;;
26750;SDS011;14345;48.272;25.926;2022-11-04T13:54:56;38.38;;;17.80;;
26750;SDS011;14345;48.272;25.926;2022-11-04T13:57:23;44.92;;;21.42;;
26750;SDS011;14345;48.272;25.926;2022-11-04T14:08:22;50.30;;;26.48;;
26750;SDS011;14345;48.272;25.926;2022-11-04T14:18:42;52.35;;;25.00;;
26750;SDS011;14345;48.272;25.926;2022-11-04T14:21:15;48.72;;;24.70;;
26750;SDS011;14345;48.272;25.926;2022-11-04T14:23:46;52.90;;;24.85;;
26750;SDS011;14345;48.272;25.926;2022-11-04T14:26:14;45.10;;;24.27;;
26750;SDS011;14345;48.272;25.926;2022-11-04T14:28:42;58.35;;;28.45;;
26750;SDS011;14345;48.272;25.926;2022-11-04T14:31:09;58.20;;;26.75;;
26750;SDS011;14345;48.272;25.926;2022-11-04T14:33:39;52.85;;;27.48;;
26750;SDS011;14345;48.272;25.926;2022-11-04T14:36:13;58.75;;;28.65;;
26750;SDS011;14345;48.272;25.926;2022-11-04T14:38:39;62.17;;;29.30;;
26750;SDS011;14345;48.272;25.926;2022-11-04T14:44:01;54.83;;;28.13;;
26750;SDS011;14345;48.272;25.926;2022-11-04T14:46:33;65.50;;;31.25;;
26750;SDS011;14345;48.272;25.926;2022-11-04T14:49:00;58.90;;;28.35;;
26750;SDS011;14345;48.272;25.926;2022-11-04T14:51:29;55.42;;;27.05;;
26750;SDS011;14345;48.272;25.926;2022-11-04T14:54:01;52.53;;;25.60;;
26750;SDS011;14345;48.272;25.926;2022-11-04T14:56:28;57.55;;;26.08;;
26750;SDS011;14345;48.272;25.926;2022-11-04T14:58:58;47.03;;;24.13;;
26750;SDS011;14345;48.272;25.926;2022-11-04T15:01:26;44.80;;;23.48;;
26750;SDS011;14345;48.272;25.926;2022-11-04T15:03:53;46.42;;;23.50;;
26750;SDS011;14345;48.272;25.926;2022-11-04T15:06:24;53.10;;;26.67;;
26750;SDS011;14345;48.272;25.926;2022-11-04T15:08:51;52.65;;;26.17;;
26750;SDS011;14345;48.272;25.926;2022-11-04T15:11:18;54.70;;;25.27;;
26750;SDS011;14345;48.272;25.926;2022-11-04T15:14:12;51.97;;;25.73;;
26750;SDS011;14345;48.272;25.926;2022-11-04T15:16:39;53.20;;;23.73;;
26750;SDS011;14345;48.272;25.926;2022-11-04T15:19:06;50.80;;;24.90;;
26750;SDS011;14345;48.272;25.926;2022-11-04T15:21:37;57.13;;;26.75;;
26750;SDS011;14345;48.272;25.926;2022-11-04T15:24:04;61.22;;;25.75;;
26750;SDS011;14345;48.272;25.926;2022-11-04T15:26:31;51.08;;;24.38;;
26750;SDS011;14345;48.272;25.926;2022-11-04T15:28:58;51.25;;;24.40;;
26750;SDS011;14345;48.272;25.926;2022-11-04T15:31:26;52.10;;;25.17;;
26750;SDS011;14345;48.272;25.926;2022-11-04T15:33:56;51.85;;;25.20;;
26750;SDS011;14345;48.272;25.926;2022-11-04T15:36:23;53.45;;;25.17;;
26750;SDS011;14345;48.272;25.926;2022-11-04T15:38:59;59.00;;;25.75;;
26750;SDS011;14345;48.272;25.926;2022-11-04T15:41:26;50.97;;;25.52;;
26750;SDS011;14345;48.272;25.926;2022-11-04T15:44:15;62.70;;;28.35;;
26750;SDS011;14345;48.272;25.926;2022-11-04T15:46:46;66.03;;;28.77;;
26750;SDS011;14345;48.272;25.926;2022-11-04T15:49:17;60.75;;;27.55;;
26750;SDS011;14345;48.272;25.926;2022-11-04T15:51:44;57.30;;;26.73;;
26750;SDS011;14345;48.272;25.926;2022-11-04T15:56:48;59.42;;;28.42;;
26750;SDS011;14345;48.272;25.926;2022-11-04T15:59:27;62.85;;;29.80;;
26750;SDS011;14345;48.272;25.926;2022-11-04T16:01:53;54.83;;;27.58;;
26750;SDS011;14345;48.272;25.926;2022-11-04T16:04:21;58.58;;;28.30;;
26750;SDS011;14345;48.272;25.926;2022-11-04T16:07:01;58.85;;;28.85;;
26750;SDS011;14345;48.272;25.926;2022-11-04T16:09:27;64.10;;;30.48;;
26750;SDS011;14345;48.272;25.926;2022-11-04T16:12:04;67.68;;;31.40;;
26750;SDS011;14345;48.272;25.926;2022-11-04T16:14:30;59.50;;;28.98;;
26750;SDS011;14345;48.272;25.926;2022-11-04T16:16:56;64.75;;;29.95;;
26750;SDS011;14345;48.272;25.926;2022-11-04T16:19:25;64.18;;;31.45;;
26750;SDS011;14345;48.272;25.926;2022-11-04T16:21:59;68.95;;;33.63;;
26750;SDS011;14345;48.272;25.926;2022-11-04T16:24:28;66.90;;;33.42;;
26750;SDS011;14345;48.272;25.926;2022-11-04T16:26:55;74.20;;;34.25;;
26750;SDS011;14345;48.272;25.926;2022-11-04T16:34:32;72.55;;;34.53;;
26750;SDS011;14345;48.272;25.926;2022-11-04T16:36:58;58.03;;;30.40;;
26750;SDS011;14345;48.272;25.926;2022-11-04T16:39:24;67.82;;;31.25;;
26750;SDS011;14345;48.272;25.926;2022-11-04T16:41:50;65.82;;;32.17;;
26750;SDS011;14345;48.272;25.926;2022-11-04T16:44:20;79.25;;;37.22;;
26750;SDS011;14345;48.272;25.926;2022-11-04T16:46:47;72.20;;;35.72;;
26750;SDS011;14345;48.272;25.926;2022-11-04T16:49:14;71.03;;;35.65;;
26750;SDS011;14345;48.272;25.926;2022-11-04T16:51:40;72.25;;;33.55;;
26750;SDS011;14345;48.272;25.926;2022-11-04T16:54:07;71.32;;;34.08;;
26750;SDS011;14345;48.272;25.926;2022-11-04T16:56:33;62.10;;;30.77;;
26750;SDS011;14345;48.272;25.926;2022-11-04T16:58:59;66.22;;;32.17;;
26750;SDS011;14345;48.272;25.926;2022-11-04T17:01:25;67.15;;;32.60;;
26750;SDS011;14345;48.272;25.926;2022-11-04T17:03:51;73.38;;;35.80;;
26750;SDS011;14345;48.272;25.926;2022-11-04T17:06:18;67.72;;;34.67;;
26750;SDS011;14345;48.272;25.926;2022-11-04T17:08:44;67.40;;;33.30;;
26750;SDS011;14345;48.272;25.926;2022-11-04T17:11:10;68.57;;;34.05;;
26750;SDS011;14345;48.272;25.926;2022-11-04T17:13:36;69.43;;;34.40;;
26750;SDS011;14345;48.272;25.926;2022-11-04T17:16:03;74.97;;;36.38;;
26750;SDS011;14345;48.272;25.926;2022-11-04T17:18:30;80.15;;;37.53;;
26750;SDS011;14345;48.272;25.926;2022-11-04T17:20:57;69.05;;;36.97;;
26750;SDS011;14345;48.272;25.926;2022-11-04T17:23:23;74.60;;;36.05;;
26750;SDS011;14345;48.272;25.926;2022-11-04T17:25:49;81.32;;;39.00;;
26750;SDS011;14345;48.272;25.926;2022-11-04T17:28:15;84.60;;;40.75;;
26750;SDS011;14345;48.272;25.926;2022-11-04T17:30:42;86.20;;;40.63;;
26750;SDS011;14345;48.272;25.926;2022-11-04T17:33:12;84.90;;;41.30;;
26750;SDS011;14345;48.272;25.926;2022-11-04T17:35:39;82.15;;;39.17;;